createdAt,value
2022-10-13T00:00:40.719Z,5.20
2022-10-13T00:02:42.843Z,5.43
2022-10-13T00:04:45.413Z,5.93
2022-10-13T00:06:47.419Z,5.47
2022-10-13T00:08:50.081Z,5.20
2022-10-13T00:10:52.513Z,5.70
2022-10-13T00:12:59.097Z,6.35
2022-10-13T00:15:01.256Z,6.30
2022-10-13T00:17:03.497Z,5.50
2022-10-13T00:19:12.867Z,7.57
2022-10-13T00:21:20.581Z,5.60
2022-10-13T00:23:24.825Z,5.00
2022-10-13T00:25:27.236Z,6.15
2022-10-13T00:27:29.825Z,5.13
2022-10-13T00:29:31.982Z,5.38
2022-10-13T00:31:34.201Z,5.80
2022-10-13T00:33:37.302Z,5.82
2022-10-13T00:35:48.679Z,4.95
2022-10-13T00:37:53.823Z,5.65
2022-10-13T00:39:55.855Z,5.93
2022-10-13T00:42:00.900Z,5.90
2022-10-13T00:44:27.140Z,6.43
2022-10-13T00:46:34.510Z,5.32
2022-10-13T00:48:36.646Z,7.40
2022-10-13T00:50:41.867Z,6.60
2022-10-13T00:52:44.996Z,5.88
2022-10-13T00:54:50.036Z,6.35
2022-10-13T00:56:54.380Z,6.13
2022-10-13T00:58:57.164Z,7.80
2022-10-13T01:01:00.063Z,6.45
2022-10-13T01:03:03.012Z,6.93
2022-10-13T01:05:07.427Z,6.57
2022-10-13T01:07:10.095Z,6.95
2022-10-13T01:09:12.465Z,6.50
2022-10-13T01:13:45.563Z,7.10
2022-10-13T01:16:15.224Z,7.18
2022-10-13T01:18:50.987Z,6.03
2022-10-13T01:21:16.404Z,6.57
2022-10-13T01:25:45.439Z,7.43
2022-10-13T01:27:53.946Z,6.70
2022-10-13T01:30:06.755Z,6.72
2022-10-13T01:32:31.619Z,7.80
2022-10-13T01:34:43.302Z,6.13
2022-10-13T01:37:00.687Z,6.55
2022-10-13T01:39:14.914Z,6.10
2022-10-13T01:41:37.521Z,6.10
2022-10-13T01:43:46.842Z,6.03
2022-10-13T01:46:03.694Z,6.55
2022-10-13T01:48:07.539Z,6.50
2022-10-13T01:50:17.250Z,5.85
2022-10-13T01:52:23.000Z,7.03
2022-10-13T01:54:25.099Z,8.00
2022-10-13T01:56:27.122Z,6.55
2022-10-13T01:58:33.095Z,6.45
2022-10-13T02:00:49.554Z,6.70
2022-10-13T02:02:51.905Z,6.68
2022-10-13T02:05:15.158Z,6.80
2022-10-13T02:07:26.365Z,6.57
2022-10-13T02:09:40.229Z,6.72
2022-10-13T02:11:50.924Z,6.70
2022-10-13T02:14:33.903Z,6.88
2022-10-13T02:16:43.177Z,6.30
2022-10-13T02:18:45.488Z,7.03
2022-10-13T02:20:50.540Z,7.47
2022-10-13T02:23:00.805Z,6.85
2022-10-13T02:25:03.051Z,6.78
2022-10-13T02:27:06.877Z,7.03
2022-10-13T02:29:09.739Z,6.68
2022-10-13T02:31:11.832Z,6.50
2022-10-13T02:33:15.077Z,6.50
2022-10-13T02:35:17.254Z,7.40
2022-10-13T02:37:19.544Z,6.25
2022-10-13T02:41:24.002Z,7.28
2022-10-13T02:43:26.141Z,6.80
2022-10-13T02:45:28.475Z,6.43
2022-10-13T02:49:32.552Z,6.70
2022-10-13T02:51:39.729Z,6.13
2022-10-13T02:53:42.344Z,6.40
2022-10-13T02:55:44.422Z,5.40
2022-10-13T02:57:46.662Z,7.05
2022-10-13T02:59:48.798Z,6.22
2022-10-13T03:01:50.941Z,6.25
2022-10-13T03:03:53.035Z,5.75
2022-10-13T03:05:55.080Z,5.43
2022-10-13T03:09:59.531Z,5.88
2022-10-13T03:12:02.128Z,5.85
2022-10-13T03:14:04.994Z,6.13
2022-10-13T03:16:07.834Z,5.78
2022-10-13T03:18:09.863Z,5.30
2022-10-13T03:20:11.982Z,5.43
2022-10-13T03:22:15.637Z,6.07
2022-10-13T03:24:18.707Z,5.28
2022-10-13T03:26:20.779Z,6.07
2022-10-13T03:28:23.739Z,6.70
2022-10-13T03:30:26.879Z,5.82
2022-10-13T03:34:32.936Z,5.93
2022-10-13T03:36:35.195Z,5.10
2022-10-13T03:38:37.311Z,6.22
2022-10-13T03:40:39.408Z,5.78
2022-10-13T03:42:41.539Z,6.20
2022-10-13T03:44:43.563Z,5.20
2022-10-13T03:46:45.886Z,5.30
2022-10-13T03:50:50.592Z,5.80
2022-10-13T03:52:52.766Z,5.03
2022-10-13T03:54:54.945Z,5.97
2022-10-13T03:56:57.029Z,5.05
2022-10-13T03:59:00.993Z,4.93
2022-10-13T04:01:05.487Z,5.40
2022-10-13T04:03:07.589Z,5.97
2022-10-13T04:05:09.849Z,5.35
2022-10-13T04:07:11.869Z,5.13
2022-10-13T04:09:14.054Z,4.75
2022-10-13T04:11:17.102Z,5.32
2022-10-13T04:13:19.543Z,5.28
2022-10-13T04:15:23.580Z,4.90
2022-10-13T04:17:25.717Z,5.20
2022-10-13T04:19:27.899Z,4.82
2022-10-13T04:21:31.742Z,4.60
2022-10-13T04:23:33.878Z,4.15
2022-10-13T04:25:37.557Z,4.55
2022-10-13T04:27:39.691Z,4.30
2022-10-13T04:29:41.705Z,4.53
2022-10-13T04:31:44.044Z,4.15
2022-10-13T04:33:46.141Z,4.93
2022-10-13T04:35:48.260Z,4.78
2022-10-13T04:37:50.256Z,4.43
2022-10-13T04:39:52.358Z,4.63
2022-10-13T04:41:54.442Z,4.97
2022-10-13T04:43:57.110Z,4.85
2022-10-13T04:46:08.292Z,4.97
2022-10-13T04:48:10.806Z,4.15
2022-10-13T04:50:13.553Z,4.15
2022-10-13T04:52:15.915Z,4.10
2022-10-13T04:54:19.738Z,3.70
2022-10-13T04:56:21.913Z,3.55
2022-10-13T04:58:24.002Z,3.67
2022-10-13T05:00:27.526Z,4.13
2022-10-13T05:02:30.057Z,4.18
2022-10-13T05:04:34.040Z,3.97
2022-10-13T05:06:58.907Z,4.28
2022-10-13T05:09:02.077Z,4.95
2022-10-13T05:13:06.225Z,3.77
2022-10-13T05:15:08.737Z,4.00
2022-10-13T05:17:10.907Z,4.10
2022-10-13T05:19:13.685Z,4.05
2022-10-13T05:21:18.910Z,3.67
2022-10-13T05:23:20.952Z,4.57
2022-10-13T05:25:23.093Z,4.18
2022-10-13T05:27:25.202Z,4.50
2022-10-13T05:29:27.350Z,4.40
2022-10-13T05:33:32.723Z,4.63
2022-10-13T05:35:34.718Z,3.88
2022-10-13T05:37:36.923Z,4.40
2022-10-13T05:39:39.024Z,5.30
2022-10-13T05:41:41.114Z,4.15
2022-10-13T05:43:49.250Z,3.78
2022-10-13T05:45:51.302Z,4.47
2022-10-13T05:47:56.450Z,4.38
2022-10-13T05:49:58.520Z,4.25
2022-10-13T05:52:04.338Z,4.93
2022-10-13T05:54:21.658Z,3.80
2022-10-13T05:56:27.780Z,4.43
2022-10-13T05:58:30.772Z,3.95
2022-10-13T06:00:42.081Z,4.63
2022-10-13T06:02:54.548Z,3.58
2022-10-13T06:04:57.702Z,3.78
2022-10-13T06:07:00.115Z,4.13
2022-10-13T06:09:02.287Z,3.53
2022-10-13T06:11:05.196Z,4.63
2022-10-13T06:13:07.277Z,3.90
2022-10-13T06:15:09.919Z,3.78
2022-10-13T06:17:12.044Z,3.70
2022-10-13T06:19:18.177Z,3.90
2022-10-13T06:21:20.265Z,4.03
2022-10-13T06:23:22.452Z,3.85
2022-10-13T06:25:24.539Z,4.07
2022-10-13T06:27:27.248Z,4.68
2022-10-13T06:29:29.930Z,4.07
2022-10-13T06:31:32.111Z,4.07
2022-10-13T06:33:34.627Z,3.65
2022-10-13T06:37:38.789Z,3.90
2022-10-13T06:39:45.505Z,3.70
2022-10-13T06:41:48.387Z,3.90
2022-10-13T06:43:50.461Z,3.83
2022-10-13T06:45:53.214Z,3.95
2022-10-13T06:47:55.692Z,4.18
2022-10-13T06:49:58.316Z,4.50
2022-10-13T06:52:00.448Z,3.80
2022-10-13T06:54:02.497Z,4.05
2022-10-13T06:56:07.434Z,3.90
2022-10-13T06:58:12.968Z,4.28
2022-10-13T07:00:15.206Z,3.97
2022-10-13T07:02:19.276Z,3.42
2022-10-13T07:04:23.068Z,4.18
2022-10-13T07:06:25.227Z,4.13
2022-10-13T07:08:29.103Z,3.67
2022-10-13T07:10:31.148Z,4.10
2022-10-13T07:12:33.388Z,4.97
2022-10-13T07:14:36.508Z,4.30
2022-10-13T07:16:39.954Z,4.60
2022-10-13T07:18:42.133Z,4.60
2022-10-13T07:20:44.231Z,4.80
2022-10-13T07:22:46.355Z,3.92
2022-10-13T07:24:49.529Z,4.38
2022-10-13T07:26:51.983Z,4.20
2022-10-13T07:28:54.119Z,3.90
2022-10-13T07:30:56.198Z,3.67
2022-10-13T07:32:58.320Z,3.67
2022-10-13T07:35:00.367Z,3.97
2022-10-13T07:37:02.519Z,3.25
2022-10-13T07:39:05.672Z,3.72
2022-10-13T07:41:10.471Z,3.45
2022-10-13T07:43:12.473Z,3.50
2022-10-13T07:45:15.539Z,3.65
2022-10-13T07:47:17.842Z,3.55
2022-10-13T07:49:20.529Z,3.63
2022-10-13T07:53:25.525Z,3.33
2022-10-13T07:55:27.551Z,4.25
2022-10-13T07:57:29.786Z,3.47
2022-10-13T07:59:34.782Z,3.80
2022-10-13T08:01:41.174Z,4.15
2022-10-13T08:03:47.361Z,3.72
2022-10-13T08:05:54.701Z,3.85
2022-10-13T08:07:58.506Z,3.70
2022-10-13T08:10:00.945Z,3.60
2022-10-13T08:12:05.168Z,3.63
2022-10-13T08:14:07.497Z,3.80
2022-10-13T08:18:14.034Z,3.80
2022-10-13T08:20:16.349Z,4.43
2022-10-13T08:22:18.520Z,3.75
2022-10-13T08:24:22.706Z,3.63
2022-10-13T08:26:27.334Z,4.10
2022-10-13T08:28:29.754Z,3.03
2022-10-13T08:32:34.750Z,3.67
2022-10-13T08:34:37.129Z,3.67
2022-10-13T08:36:39.864Z,3.97
2022-10-13T08:38:42.722Z,3.70
2022-10-13T08:40:49.904Z,3.35
2022-10-13T08:42:55.589Z,3.58
2022-10-13T08:45:28.785Z,3.72
2022-10-13T08:47:27.513Z,3.85
2022-10-13T08:49:30.974Z,5.10
2022-10-13T08:51:33.760Z,3.80
2022-10-13T08:53:41.726Z,3.50
2022-10-13T08:55:50.316Z,4.05
2022-10-13T08:57:52.982Z,3.65
2022-10-13T09:00:01.829Z,4.18
2022-10-13T09:02:15.604Z,3.95
2022-10-13T09:04:29.776Z,3.83
2022-10-13T09:06:45.484Z,3.55
2022-10-13T09:08:57.029Z,3.70
2022-10-13T09:10:59.830Z,3.92
2022-10-13T09:13:02.483Z,3.45
2022-10-13T09:15:09.958Z,3.20
2022-10-13T09:19:25.282Z,4.13
2022-10-13T09:21:27.717Z,4.03
2022-10-13T09:23:30.590Z,3.30
2022-10-13T09:25:47.327Z,3.55
2022-10-13T09:27:50.729Z,3.47
2022-10-13T09:29:53.143Z,5.07
2022-10-13T09:34:15.721Z,4.00
2022-10-13T09:36:17.849Z,3.85
2022-10-13T09:38:25.311Z,3.35
2022-10-13T09:40:32.347Z,3.67
2022-10-13T09:42:34.762Z,3.67
2022-10-13T09:44:39.023Z,3.25
2022-10-13T09:46:56.410Z,3.20
2022-10-13T09:49:40.392Z,3.38
2022-10-13T09:51:45.689Z,3.03
2022-10-13T09:53:57.203Z,2.83
2022-10-13T09:56:30.918Z,2.85
2022-10-13T09:58:38.421Z,3.55
2022-10-13T10:00:45.130Z,3.03
2022-10-13T10:02:56.319Z,2.90
2022-10-13T10:05:19.688Z,2.70
2022-10-13T10:07:30.349Z,3.45
2022-10-13T10:09:40.194Z,2.75
2022-10-13T10:11:48.134Z,2.90
2022-10-13T10:13:52.670Z,2.78
2022-10-13T10:16:12.961Z,2.90
2022-10-13T10:18:21.421Z,3.42
2022-10-13T10:20:51.054Z,3.88
2022-10-13T10:23:03.549Z,3.72
2022-10-13T10:25:33.916Z,3.70
2022-10-13T10:27:45.807Z,3.35
2022-10-13T10:30:11.316Z,3.20
2022-10-13T10:32:32.596Z,3.22
2022-10-13T10:34:42.579Z,2.70
2022-10-13T10:36:54.216Z,2.90
2022-10-13T10:39:31.980Z,2.67
2022-10-13T10:41:45.040Z,3.15
2022-10-13T10:44:02.789Z,2.40
2022-10-13T10:46:12.021Z,2.83
2022-10-13T10:48:23.212Z,2.53
2022-10-13T10:50:25.452Z,2.80
2022-10-13T10:52:44.008Z,2.60
2022-10-13T10:54:51.944Z,2.85
2022-10-13T10:57:00.788Z,2.15
2022-10-13T10:59:50.528Z,2.13
2022-10-13T11:02:00.594Z,2.63
2022-10-13T11:04:23.693Z,2.75
2022-10-13T11:06:34.653Z,3.05
2022-10-13T11:08:43.010Z,2.80
2022-10-13T11:10:46.852Z,2.05
2022-10-13T11:12:53.300Z,2.55
2022-10-13T11:14:55.507Z,2.63
2022-10-13T11:17:06.684Z,2.97
2022-10-13T11:19:08.878Z,2.42
2022-10-13T11:21:11.112Z,2.28
2022-10-13T11:23:13.188Z,2.15
2022-10-13T11:25:40.203Z,2.20
2022-10-13T11:27:43.838Z,2.65
2022-10-13T11:29:46.853Z,2.50
2022-10-13T11:31:52.718Z,2.78
2022-10-13T11:33:57.585Z,2.55
2022-10-13T11:36:33.255Z,2.53
2022-10-13T11:38:38.833Z,2.10
2022-10-13T11:40:47.703Z,2.53
2022-10-13T11:43:11.481Z,2.65
2022-10-13T11:45:27.593Z,2.53
2022-10-13T11:48:05.980Z,2.10
2022-10-13T11:50:26.747Z,2.03
2022-10-13T11:52:51.778Z,2.08
2022-10-13T11:55:27.245Z,2.38
2022-10-13T11:57:32.895Z,2.40
2022-10-13T11:59:37.818Z,2.75
2022-10-13T12:01:44.398Z,2.13
2022-10-13T12:03:48.236Z,2.35
2022-10-13T12:05:51.654Z,2.67
2022-10-13T12:08:03.123Z,2.00
2022-10-13T12:10:08.720Z,2.05
2022-10-13T12:12:16.905Z,2.42
2022-10-13T12:14:32.929Z,1.98
2022-10-13T12:16:35.139Z,2.15
2022-10-13T12:18:39.531Z,2.47
2022-10-13T12:20:41.596Z,1.73
2022-10-13T12:22:51.243Z,2.03
2022-10-13T12:25:07.335Z,2.33
2022-10-13T12:27:21.997Z,2.28
2022-10-13T12:29:32.153Z,2.63
2022-10-13T12:31:45.567Z,2.35
2022-10-13T12:34:01.693Z,2.42
2022-10-13T12:36:17.903Z,2.38
2022-10-13T12:38:21.651Z,2.40
2022-10-13T12:40:25.376Z,2.40
2022-10-13T12:42:33.308Z,2.05
2022-10-13T12:44:35.703Z,1.90
2022-10-13T12:48:44.860Z,2.20
2022-10-13T12:50:47.094Z,2.53
2022-10-13T12:54:59.456Z,2.10
2022-10-13T12:57:06.600Z,2.40
2022-10-13T12:59:17.912Z,2.10
2022-10-13T13:01:34.586Z,2.63
2022-10-13T13:03:39.033Z,2.03
2022-10-13T13:05:51.836Z,2.10
2022-10-13T13:07:56.988Z,1.95
2022-10-13T13:12:13.206Z,1.42
2022-10-13T13:14:36.997Z,2.00
2022-10-13T13:16:39.199Z,2.17
2022-10-13T13:18:45.857Z,1.95
2022-10-13T13:20:47.940Z,1.95
2022-10-13T13:22:50.906Z,3.05
2022-10-13T13:24:53.647Z,2.53
2022-10-13T13:26:55.828Z,1.88
2022-10-13T13:28:57.833Z,2.22
2022-10-13T13:31:00.345Z,2.55
2022-10-13T13:33:02.419Z,2.30
2022-10-13T13:35:05.595Z,2.10
2022-10-13T13:37:32.535Z,2.33
2022-10-13T13:39:34.594Z,2.08
2022-10-13T13:41:37.272Z,2.20
2022-10-13T13:43:39.879Z,2.20
2022-10-13T13:45:42.056Z,1.90
2022-10-13T13:47:44.999Z,2.13
2022-10-13T13:49:48.131Z,2.38
2022-10-13T13:51:50.170Z,2.20
2022-10-13T13:53:52.211Z,2.42
2022-10-13T13:55:54.316Z,2.30
2022-10-13T13:57:57.351Z,2.03
2022-10-13T13:59:59.382Z,2.28
2022-10-13T14:02:01.592Z,2.20
2022-10-13T14:04:08.302Z,1.88
2022-10-13T14:06:17.974Z,2.40
2022-10-13T14:08:20.045Z,2.70
2022-10-13T14:10:22.361Z,3.90
2022-10-13T14:12:25.082Z,3.92
2022-10-13T14:14:27.496Z,2.95
2022-10-13T14:16:29.636Z,2.38
2022-10-13T14:18:33.352Z,2.60
2022-10-13T14:20:42.891Z,2.58
2022-10-13T14:22:45.238Z,2.25
2022-10-13T14:24:49.238Z,2.33
2022-10-13T14:28:54.534Z,1.80
2022-10-13T14:31:06.945Z,3.03
2022-10-13T14:33:12.672Z,2.88
2022-10-13T14:35:14.935Z,3.35
2022-10-13T14:37:23.160Z,2.85
2022-10-13T14:39:25.669Z,3.42
2022-10-13T14:41:27.974Z,3.35
2022-10-13T14:43:30.508Z,3.08
2022-10-13T14:45:35.871Z,2.88
2022-10-13T14:47:39.195Z,2.63
2022-10-13T14:49:41.427Z,4.07
2022-10-13T14:51:43.864Z,2.88
2022-10-13T14:55:48.908Z,2.60
2022-10-13T14:57:51.217Z,2.30
2022-10-13T15:02:06.653Z,4.25
2022-10-13T15:04:09.282Z,4.38
2022-10-13T15:06:22.707Z,4.00
2022-10-13T15:08:25.290Z,3.92
2022-10-13T15:10:30.712Z,4.72
2022-10-13T15:12:34.636Z,4.22
2022-10-13T15:14:36.722Z,4.22
2022-10-13T15:16:42.546Z,4.30
2022-10-13T15:18:45.164Z,4.00
2022-10-13T15:20:48.040Z,3.65
2022-10-13T15:22:53.616Z,3.83
2022-10-13T15:24:55.700Z,3.92
2022-10-13T15:26:57.788Z,4.05
2022-10-13T15:29:05.391Z,4.00
2022-10-13T15:31:07.603Z,4.53
2022-10-13T15:35:14.745Z,4.15
2022-10-13T15:37:17.030Z,4.63
2022-10-13T15:39:19.192Z,4.68
2022-10-13T15:41:25.013Z,4.15
2022-10-13T15:43:30.812Z,3.70
2022-10-13T15:45:33.201Z,4.32
2022-10-13T15:47:36.262Z,3.83
2022-10-13T15:49:41.150Z,3.75
2022-10-13T15:51:46.449Z,4.25
2022-10-13T15:53:51.546Z,3.03
2022-10-13T15:55:53.709Z,3.70
2022-10-13T15:58:01.506Z,3.60
2022-10-13T16:00:09.508Z,3.72
2022-10-13T16:02:15.601Z,3.88
2022-10-13T16:04:17.747Z,3.97
2022-10-13T16:06:26.756Z,3.53
2022-10-13T16:08:28.889Z,3.63
2022-10-13T16:10:31.010Z,3.67
2022-10-13T16:12:33.754Z,4.50
2022-10-13T16:14:35.887Z,4.72
2022-10-13T16:16:38.326Z,3.78
2022-10-13T16:18:41.345Z,4.13
2022-10-13T16:20:45.510Z,4.07
2022-10-13T16:22:47.677Z,4.90
2022-10-13T16:24:50.067Z,4.38
2022-10-13T16:28:56.246Z,4.28
2022-10-13T16:31:15.300Z,5.03
2022-10-13T16:33:17.788Z,6.05
2022-10-13T16:35:20.013Z,4.97
2022-10-13T16:37:22.376Z,5.90
2022-10-13T16:39:31.001Z,5.30
2022-10-13T16:41:33.075Z,5.93
2022-10-13T16:43:37.900Z,5.50
2022-10-13T16:45:59.001Z,6.88
2022-10-13T16:48:01.981Z,5.78
2022-10-13T16:50:09.879Z,6.25
2022-10-13T16:52:12.404Z,6.70
2022-10-13T16:54:17.580Z,7.03
2022-10-13T16:56:22.388Z,7.45
2022-10-13T16:58:25.247Z,5.80
2022-10-13T17:02:29.862Z,5.57
2022-10-13T17:04:32.092Z,5.43
2022-10-13T17:08:43.352Z,6.35
2022-10-13T17:10:47.767Z,6.22
2022-10-13T17:12:52.426Z,6.18
2022-10-13T17:14:57.117Z,5.97
2022-10-13T17:17:02.876Z,6.57
2022-10-13T17:19:05.670Z,6.10
2022-10-13T17:21:19.026Z,5.82
2022-10-13T17:23:23.679Z,5.55
2022-10-13T17:25:25.838Z,5.35
2022-10-13T17:27:28.323Z,6.20
2022-10-13T17:29:30.665Z,6.30
2022-10-13T17:33:41.891Z,7.15
2022-10-13T17:35:44.945Z,6.07
2022-10-13T17:37:49.894Z,5.65
2022-10-13T17:39:53.563Z,6.03
2022-10-13T17:41:57.102Z,6.75
2022-10-13T17:44:02.385Z,7.82
2022-10-13T17:46:36.731Z,7.57
2022-10-13T17:48:39.157Z,7.80
2022-10-13T17:50:41.206Z,8.73
2022-10-13T17:52:43.453Z,8.18
2022-10-13T17:56:49.050Z,6.75
2022-10-13T17:58:51.928Z,7.50
2022-10-13T18:01:12.261Z,6.93
2022-10-13T18:03:14.864Z,7.30
2022-10-13T18:05:17.765Z,6.32
2022-10-13T18:09:24.822Z,6.88
2022-10-13T18:11:26.945Z,6.53
2022-10-13T18:13:29.147Z,6.97
2022-10-13T18:15:36.851Z,6.65
2022-10-13T18:17:42.861Z,6.88
2022-10-13T18:19:45.196Z,7.40
2022-10-13T18:21:48.613Z,7.13
2022-10-13T18:23:50.834Z,6.35
2022-10-13T18:25:57.203Z,7.18
2022-10-13T18:28:02.580Z,6.13
2022-10-13T18:30:13.191Z,6.28
2022-10-13T18:32:15.911Z,5.20
2022-10-13T18:34:18.546Z,6.13
2022-10-13T18:36:28.407Z,6.78
2022-10-13T18:38:37.088Z,5.95
2022-10-13T18:40:42.328Z,6.07
2022-10-13T18:42:54.802Z,5.70
2022-10-13T18:44:57.726Z,5.60
2022-10-13T18:47:00.603Z,5.63
2022-10-13T18:49:04.000Z,5.32
2022-10-13T18:51:15.435Z,5.60
2022-10-13T18:53:18.753Z,6.32
2022-10-13T18:55:21.090Z,6.03
2022-10-13T18:59:26.125Z,6.43
2022-10-13T19:01:30.865Z,6.78
2022-10-13T19:03:34.668Z,6.90
2022-10-13T19:05:39.308Z,6.93
2022-10-13T19:07:41.767Z,6.25
2022-10-13T19:09:46.917Z,5.50
2022-10-13T19:11:49.657Z,5.57
2022-10-13T19:13:54.123Z,6.45
2022-10-13T19:16:02.965Z,6.05
2022-10-13T19:18:06.521Z,6.53
2022-10-13T19:20:09.061Z,6.40
2022-10-13T19:22:11.561Z,6.25
2022-10-13T19:24:14.907Z,5.50
2022-10-13T19:26:24.071Z,5.85
2022-10-13T19:28:26.448Z,6.18
2022-10-13T19:30:29.941Z,7.38
2022-10-13T19:32:32.165Z,7.38
2022-10-13T19:34:34.597Z,6.38
2022-10-13T19:36:41.405Z,6.25
2022-10-13T19:38:43.627Z,5.57
2022-10-13T19:40:49.805Z,5.85
2022-10-13T19:42:52.600Z,5.20
2022-10-13T19:44:54.631Z,6.03
2022-10-13T19:46:57.206Z,5.15
2022-10-13T19:48:59.388Z,5.70
2022-10-13T19:51:02.753Z,6.00
2022-10-13T19:53:04.821Z,6.65
2022-10-13T19:55:09.806Z,5.55
2022-10-13T19:57:16.543Z,6.40
2022-10-13T19:59:19.002Z,5.75
2022-10-13T20:01:22.861Z,5.75
2022-10-13T20:03:25.155Z,6.63
2022-10-13T20:05:28.464Z,6.43
2022-10-13T20:07:33.512Z,6.28
2022-10-13T20:09:42.030Z,6.32
2022-10-13T20:11:49.621Z,6.50
2022-10-13T20:13:55.582Z,7.50
2022-10-13T20:15:58.347Z,7.82
2022-10-13T20:18:00.603Z,7.47
2022-10-13T20:20:22.138Z,7.65
2022-10-13T20:22:27.516Z,7.10
2022-10-13T20:24:31.318Z,7.80
2022-10-13T20:26:33.879Z,7.68
2022-10-13T20:28:43.187Z,7.82
2022-10-13T20:31:13.086Z,8.93
2022-10-13T20:33:15.324Z,7.38
2022-10-13T20:35:23.562Z,6.97
2022-10-13T20:37:29.391Z,6.68
2022-10-13T20:39:34.838Z,7.63
2022-10-13T20:41:45.171Z,6.65
2022-10-13T20:43:52.891Z,6.80
2022-10-13T20:46:02.852Z,6.05
2022-10-13T20:48:05.133Z,6.82
2022-10-13T20:52:11.746Z,6.30
2022-10-13T20:54:16.617Z,7.20
2022-10-13T20:58:27.051Z,6.90
2022-10-13T21:00:30.488Z,6.85
2022-10-13T21:02:33.355Z,7.60
2022-10-13T21:04:35.843Z,6.18
2022-10-13T21:06:39.095Z,7.63
2022-10-13T21:08:54.532Z,7.50
2022-10-13T21:11:12.242Z,7.40
2022-10-13T21:13:27.663Z,6.95
2022-10-13T21:15:43.645Z,7.40
2022-10-13T21:18:12.420Z,7.28
2022-10-13T21:20:27.442Z,6.97
2022-10-13T21:22:41.520Z,7.53
2022-10-13T21:24:58.265Z,6.82
2022-10-13T21:27:11.761Z,8.25
2022-10-13T21:29:25.921Z,6.40
2022-10-13T21:31:40.149Z,7.32
2022-10-13T21:33:55.435Z,7.57
2022-10-13T21:36:13.715Z,6.53
2022-10-13T21:38:27.884Z,7.15
2022-10-13T21:40:41.955Z,8.00
2022-10-13T21:42:54.291Z,7.43
2022-10-13T21:45:09.129Z,7.65
2022-10-13T21:47:24.389Z,7.78
2022-10-13T21:49:40.688Z,7.75
2022-10-13T21:52:07.756Z,7.07
2022-10-13T21:54:21.898Z,7.28
2022-10-13T21:56:37.148Z,7.72
2022-10-13T21:58:39.672Z,7.75
2022-10-13T22:00:42.291Z,8.00
2022-10-13T22:02:45.320Z,8.07
2022-10-13T22:04:49.618Z,7.97
2022-10-13T22:07:03.605Z,8.30
2022-10-13T22:09:18.377Z,8.38
2022-10-13T22:11:34.889Z,8.15
2022-10-13T22:13:58.065Z,8.45
2022-10-13T22:16:16.426Z,8.68
2022-10-13T22:18:31.653Z,8.70
2022-10-13T22:20:46.139Z,8.98
2022-10-13T22:23:01.805Z,9.48
2022-10-13T22:25:16.205Z,9.23
2022-10-13T22:27:42.586Z,9.95
2022-10-13T22:29:56.144Z,9.18
2022-10-13T22:32:10.475Z,9.95
2022-10-13T22:34:25.209Z,10.20
2022-10-13T22:36:44.470Z,9.52
2022-10-13T22:39:00.322Z,9.35
2022-10-13T22:41:14.861Z,9.60
2022-10-13T22:43:29.241Z,8.70
2022-10-13T22:45:51.223Z,9.80
2022-10-13T22:48:06.231Z,10.20
2022-10-13T22:50:09.035Z,10.07
2022-10-13T22:52:14.033Z,9.10
2022-10-13T22:54:16.190Z,9.38
2022-10-13T22:56:26.929Z,9.52
2022-10-13T22:58:39.349Z,9.68
2022-10-13T23:00:52.962Z,9.77
2022-10-13T23:03:07.571Z,10.20
2022-10-13T23:05:09.904Z,10.10
2022-10-13T23:07:12.578Z,11.02
2022-10-13T23:09:14.919Z,10.30
2022-10-13T23:11:21.730Z,10.02
2022-10-13T23:13:34.424Z,10.35
2022-10-13T23:15:48.883Z,11.93
2022-10-13T23:18:02.653Z,11.30
2022-10-13T23:20:16.937Z,11.57
2022-10-13T23:22:31.207Z,11.45
2022-10-13T23:24:45.511Z,11.18
2022-10-13T23:27:01.361Z,11.85
2022-10-13T23:29:15.278Z,10.85
2022-10-13T23:31:29.884Z,11.18
2022-10-13T23:33:43.528Z,10.05
2022-10-13T23:36:02.194Z,11.20
2022-10-13T23:38:15.385Z,10.55
2022-10-13T23:40:29.687Z,11.20
2022-10-13T23:42:43.620Z,10.68
2022-10-13T23:44:58.119Z,11.32
2022-10-13T23:47:12.161Z,11.20
2022-10-13T23:49:27.507Z,10.75
2022-10-13T23:51:44.033Z,11.43
2022-10-13T23:53:58.961Z,11.32
2022-10-13T23:56:13.533Z,12.85
2022-10-13T23:58:26.294Z,9.93
